sensor_id;sensor_type;location;lat;lon;timestamp;temperature;humidity
52075;DHT22;38075;53.172;5.446;2022-09-23T00:00:14;9.00;99.90
52075;DHT22;38075;53.172;5.446;2022-09-23T00:02:40;8.60;99.90
52075;DHT22;38075;53.172;5.446;2022-09-23T00:05:07;8.60;99.90
52075;DHT22;38075;53.172;5.446;2022-09-23T00:07:34;8.50;99.90
52075;DHT22;38075;53.172;5.446;2022-09-23T00:10:00;8.80;99.90
52075;DHT22;38075;53.172;5.446;2022-09-23T00:12:25;8.50;99.90
52075;DHT22;38075;53.172;5.446;2022-09-23T00:14:51;8.60;99.90
52075;DHT22;38075;53.172;5.446;2022-09-23T00:17:17;8.60;99.90
52075;DHT22;38075;53.172;5.446;2022-09-23T00:19:42;8.70;99.90
52075;DHT22;38075;53.172;5.446;2022-09-23T00:22:08;8.70;99.90
52075;DHT22;38075;53.172;5.446;2022-09-23T00:24:34;8.60;99.90
52075;DHT22;38075;53.172;5.446;2022-09-23T00:26:59;8.50;99.90
52075;DHT22;38075;53.172;5.446;2022-09-23T00:29:25;8.50;99.90
52075;DHT22;38075;53.172;5.446;2022-09-23T00:31:51;8.50;99.90
52075;DHT22;38075;53.172;5.446;2022-09-23T00:34:17;8.40;99.90
52075;DHT22;38075;53.172;5.446;2022-09-23T00:36:42;8.40;99.90
52075;DHT22;38075;53.172;5.446;2022-09-23T00:39:08;8.40;99.90
52075;DHT22;38075;53.172;5.446;2022-09-23T00:41:34;8.50;99.90
52075;DHT22;38075;53.172;5.446;2022-09-23T00:44:37;8.50;99.90
52075;DHT22;38075;53.172;5.446;2022-09-23T00:46:47;8.50;99.90
52075;DHT22;38075;53.172;5.446;2022-09-23T00:49:28;8.50;99.90
52075;DHT22;38075;53.172;5.446;2022-09-23T00:51:59;8.40;99.90
52075;DHT22;38075;53.172;5.446;2022-09-23T00:54:26;8.40;99.90
52075;DHT22;38075;53.172;5.446;2022-09-23T00:56:53;8.40;99.90
52075;DHT22;38075;53.172;5.446;2022-09-23T00:59:19;8.50;99.90
52075;DHT22;38075;53.172;5.446;2022-09-23T01:01:46;8.40;99.90
52075;DHT22;38075;53.172;5.446;2022-09-23T01:04:14;8.40;99.90
52075;DHT22;38075;53.172;5.446;2022-09-23T01:06:39;8.40;99.90
52075;DHT22;38075;53.172;5.446;2022-09-23T01:09:06;8.40;99.90
52075;DHT22;38075;53.172;5.446;2022-09-23T01:14:32;8.30;99.90
52075;DHT22;38075;53.172;5.446;2022-09-23T01:23:18;8.30;99.90
52075;DHT22;38075;53.172;5.446;2022-09-23T01:31:24;8.10;99.90
52075;DHT22;38075;53.172;5.446;2022-09-23T01:34:00;7.90;99.90
52075;DHT22;38075;53.172;5.446;2022-09-23T01:36:52;7.80;99.90
52075;DHT22;38075;53.172;5.446;2022-09-23T01:42:11;7.80;99.90
52075;DHT22;38075;53.172;5.446;2022-09-23T01:44:54;7.80;99.90
52075;DHT22;38075;53.172;5.446;2022-09-23T01:47:28;7.80;99.90
52075;DHT22;38075;53.172;5.446;2022-09-23T01:50:18;7.80;99.90
52075;DHT22;38075;53.172;5.446;2022-09-23T01:53:11;7.80;99.90
52075;DHT22;38075;53.172;5.446;2022-09-23T01:55:42;7.80;99.90
52075;DHT22;38075;53.172;5.446;2022-09-23T01:58:22;7.70;99.90
52075;DHT22;38075;53.172;5.446;2022-09-23T02:00:55;7.60;99.90
52075;DHT22;38075;53.172;5.446;2022-09-23T02:06:08;7.50;99.90
52075;DHT22;38075;53.172;5.446;2022-09-23T02:09:04;7.40;99.90
52075;DHT22;38075;53.172;5.446;2022-09-23T02:11:33;7.20;99.90
52075;DHT22;38075;53.172;5.446;2022-09-23T02:14:24;7.20;99.90
52075;DHT22;38075;53.172;5.446;2022-09-23T02:16:54;7.10;99.90
52075;DHT22;38075;53.172;5.446;2022-09-23T02:22:16;7.10;99.90
52075;DHT22;38075;53.172;5.446;2022-09-23T02:24:43;7.20;99.90
52075;DHT22;38075;53.172;5.446;2022-09-23T02:30:09;7.30;99.90
52075;DHT22;38075;53.172;5.446;2022-09-23T02:35:32;7.30;99.90
52075;DHT22;38075;53.172;5.446;2022-09-23T02:40:52;7.30;99.90
52075;DHT22;38075;53.172;5.446;2022-09-23T02:45:58;7.30;99.90
52075;DHT22;38075;53.172;5.446;2022-09-23T02:48:45;7.20;99.90
52075;DHT22;38075;53.172;5.446;2022-09-23T02:51:12;7.20;99.90
52075;DHT22;38075;53.172;5.446;2022-09-23T02:53:40;7.20;99.90
52075;DHT22;38075;53.172;5.446;2022-09-23T02:56:15;7.10;99.90
52075;DHT22;38075;53.172;5.446;2022-09-23T02:58:41;7.20;99.90
52075;DHT22;38075;53.172;5.446;2022-09-23T03:07:09;6.90;99.90
52075;DHT22;38075;53.172;5.446;2022-09-23T03:12:37;6.80;99.90
52075;DHT22;38075;53.172;5.446;2022-09-23T03:15:25;6.80;99.90
52075;DHT22;38075;53.172;5.446;2022-09-23T03:18:16;6.80;99.90
52075;DHT22;38075;53.172;5.446;2022-09-23T03:20:47;6.80;99.90
52075;DHT22;38075;53.172;5.446;2022-09-23T03:23:18;6.80;99.90
52075;DHT22;38075;53.172;5.446;2022-09-23T03:25:48;6.80;99.90
52075;DHT22;38075;53.172;5.446;2022-09-23T03:28:15;6.90;99.90
52075;DHT22;38075;53.172;5.446;2022-09-23T03:30:44;6.60;99.90
52075;DHT22;38075;53.172;5.446;2022-09-23T03:33:13;6.50;99.90
52075;DHT22;38075;53.172;5.446;2022-09-23T03:35:48;6.50;99.90
52075;DHT22;38075;53.172;5.446;2022-09-23T03:38:38;6.70;99.90
52075;DHT22;38075;53.172;5.446;2022-09-23T03:41:06;6.40;99.90
52075;DHT22;38075;53.172;5.446;2022-09-23T03:43:34;6.40;99.90
52075;DHT22;38075;53.172;5.446;2022-09-23T03:46:00;6.40;99.90
52075;DHT22;38075;53.172;5.446;2022-09-23T03:48:26;6.40;99.90
52075;DHT22;38075;53.172;5.446;2022-09-23T03:50:52;6.60;99.90
52075;DHT22;38075;53.172;5.446;2022-09-23T03:53:18;6.50;99.90
52075;DHT22;38075;53.172;5.446;2022-09-23T03:55:45;6.50;99.90
52075;DHT22;38075;53.172;5.446;2022-09-23T03:58:14;6.60;99.90
52075;DHT22;38075;53.172;5.446;2022-09-23T04:00:40;6.60;99.90
52075;DHT22;38075;53.172;5.446;2022-09-23T04:03:06;6.70;99.90
52075;DHT22;38075;53.172;5.446;2022-09-23T04:05:32;6.70;99.90
52075;DHT22;38075;53.172;5.446;2022-09-23T04:07:57;6.80;99.90
52075;DHT22;38075;53.172;5.446;2022-09-23T04:10:23;6.80;99.90
52075;DHT22;38075;53.172;5.446;2022-09-23T04:12:49;6.90;99.90
52075;DHT22;38075;53.172;5.446;2022-09-23T04:15:14;7.40;99.90
52075;DHT22;38075;53.172;5.446;2022-09-23T04:17:40;7.20;99.90
52075;DHT22;38075;53.172;5.446;2022-09-23T04:20:06;7.20;99.90
52075;DHT22;38075;53.172;5.446;2022-09-23T04:22:33;7.20;99.90
52075;DHT22;38075;53.172;5.446;2022-09-23T04:24:58;7.20;99.90
52075;DHT22;38075;53.172;5.446;2022-09-23T04:27:24;7.30;99.90
52075;DHT22;38075;53.172;5.446;2022-09-23T04:29:50;7.30;99.90
52075;DHT22;38075;53.172;5.446;2022-09-23T04:32:15;7.40;99.90
52075;DHT22;38075;53.172;5.446;2022-09-23T04:34:42;7.30;99.90
52075;DHT22;38075;53.172;5.446;2022-09-23T04:37:08;7.30;99.90
52075;DHT22;38075;53.172;5.446;2022-09-23T04:39:33;7.30;99.90
52075;DHT22;38075;53.172;5.446;2022-09-23T04:41:59;7.30;99.90
52075;DHT22;38075;53.172;5.446;2022-09-23T04:44:24;7.30;99.90
52075;DHT22;38075;53.172;5.446;2022-09-23T04:46:52;7.30;99.90
52075;DHT22;38075;53.172;5.446;2022-09-23T04:49:18;7.50;99.90
52075;DHT22;38075;53.172;5.446;2022-09-23T04:51:43;7.50;99.90
52075;DHT22;38075;53.172;5.446;2022-09-23T04:54:10;7.50;99.90
52075;DHT22;38075;53.172;5.446;2022-09-23T04:56:40;7.70;99.90
52075;DHT22;38075;53.172;5.446;2022-09-23T04:59:06;7.90;99.90
52075;DHT22;38075;53.172;5.446;2022-09-23T05:01:33;8.10;99.90
52075;DHT22;38075;53.172;5.446;2022-09-23T05:04:05;8.20;99.90
52075;DHT22;38075;53.172;5.446;2022-09-23T05:06:32;8.20;99.90
52075;DHT22;38075;53.172;5.446;2022-09-23T05:09:04;8.30;99.90
52075;DHT22;38075;53.172;5.446;2022-09-23T05:11:30;8.30;99.90
52075;DHT22;38075;53.172;5.446;2022-09-23T05:13:56;8.40;99.90
52075;DHT22;38075;53.172;5.446;2022-09-23T05:16:23;8.50;99.90
52075;DHT22;38075;53.172;5.446;2022-09-23T05:18:52;8.50;99.90
52075;DHT22;38075;53.172;5.446;2022-09-23T05:21:23;8.50;99.90
52075;DHT22;38075;53.172;5.446;2022-09-23T05:23:51;8.60;99.90
52075;DHT22;38075;53.172;5.446;2022-09-23T05:26:29;8.70;99.90
52075;DHT22;38075;53.172;5.446;2022-09-23T05:28:55;8.90;99.90
52075;DHT22;38075;53.172;5.446;2022-09-23T05:31:22;9.00;99.90
52075;DHT22;38075;53.172;5.446;2022-09-23T05:33:50;9.10;99.90
52075;DHT22;38075;53.172;5.446;2022-09-23T05:36:16;9.20;99.90
52075;DHT22;38075;53.172;5.446;2022-09-23T05:38:43;9.20;99.90
52075;DHT22;38075;53.172;5.446;2022-09-23T05:41:11;9.20;99.90
52075;DHT22;38075;53.172;5.446;2022-09-23T05:43:37;9.30;99.90
52075;DHT22;38075;53.172;5.446;2022-09-23T05:46:14;9.60;99.90
52075;DHT22;38075;53.172;5.446;2022-09-23T05:48:44;9.60;99.90
52075;DHT22;38075;53.172;5.446;2022-09-23T05:51:13;9.60;99.90
52075;DHT22;38075;53.172;5.446;2022-09-23T05:53:39;9.70;99.90
52075;DHT22;38075;53.172;5.446;2022-09-23T05:56:07;9.70;99.90
52075;DHT22;38075;53.172;5.446;2022-09-23T05:58:32;9.70;99.90
52075;DHT22;38075;53.172;5.446;2022-09-23T06:00:58;9.80;99.90
52075;DHT22;38075;53.172;5.446;2022-09-23T06:03:25;9.80;99.90
52075;DHT22;38075;53.172;5.446;2022-09-23T06:05:54;9.90;99.90
52075;DHT22;38075;53.172;5.446;2022-09-23T06:08:21;9.90;99.90
52075;DHT22;38075;53.172;5.446;2022-09-23T06:10:48;10.00;99.90
52075;DHT22;38075;53.172;5.446;2022-09-23T06:13:14;10.00;99.90
52075;DHT22;38075;53.172;5.446;2022-09-23T06:15:43;10.00;99.90
52075;DHT22;38075;53.172;5.446;2022-09-23T06:18:09;10.10;99.90
52075;DHT22;38075;53.172;5.446;2022-09-23T06:20:35;10.10;99.90
52075;DHT22;38075;53.172;5.446;2022-09-23T06:23:10;10.20;99.90
52075;DHT22;38075;53.172;5.446;2022-09-23T06:25:36;10.50;99.90
52075;DHT22;38075;53.172;5.446;2022-09-23T06:28:05;10.30;99.90
52075;DHT22;38075;53.172;5.446;2022-09-23T06:30:35;10.30;99.90
52075;DHT22;38075;53.172;5.446;2022-09-23T06:33:00;10.40;99.90
52075;DHT22;38075;53.172;5.446;2022-09-23T06:35:26;10.50;99.90
52075;DHT22;38075;53.172;5.446;2022-09-23T06:37:53;10.50;99.90
52075;DHT22;38075;53.172;5.446;2022-09-23T06:40:19;10.60;99.90
52075;DHT22;38075;53.172;5.446;2022-09-23T06:42:45;10.70;99.90
52075;DHT22;38075;53.172;5.446;2022-09-23T06:45:12;10.80;99.90
52075;DHT22;38075;53.172;5.446;2022-09-23T06:47:40;10.80;99.90
52075;DHT22;38075;53.172;5.446;2022-09-23T06:50:07;10.90;99.90
52075;DHT22;38075;53.172;5.446;2022-09-23T06:52:32;11.00;99.90
52075;DHT22;38075;53.172;5.446;2022-09-23T06:54:59;11.10;99.90
52075;DHT22;38075;53.172;5.446;2022-09-23T06:57:29;11.20;99.90
52075;DHT22;38075;53.172;5.446;2022-09-23T06:59:55;11.20;99.90
52075;DHT22;38075;53.172;5.446;2022-09-23T07:02:22;11.30;99.90
52075;DHT22;38075;53.172;5.446;2022-09-23T07:04:48;11.50;99.90
52075;DHT22;38075;53.172;5.446;2022-09-23T07:07:13;11.40;99.90
52075;DHT22;38075;53.172;5.446;2022-09-23T07:09:40;11.50;99.90
52075;DHT22;38075;53.172;5.446;2022-09-23T07:12:06;11.50;99.90
52075;DHT22;38075;53.172;5.446;2022-09-23T07:14:32;11.60;99.90
52075;DHT22;38075;53.172;5.446;2022-09-23T07:16:58;11.70;99.90
52075;DHT22;38075;53.172;5.446;2022-09-23T07:19:24;12.00;99.90
52075;DHT22;38075;53.172;5.446;2022-09-23T07:21:50;12.00;99.90
52075;DHT22;38075;53.172;5.446;2022-09-23T07:24:16;12.10;99.90
52075;DHT22;38075;53.172;5.446;2022-09-23T07:26:42;12.30;99.90
52075;DHT22;38075;53.172;5.446;2022-09-23T07:29:12;12.90;99.90
52075;DHT22;38075;53.172;5.446;2022-09-23T07:31:38;12.60;99.90
52075;DHT22;38075;53.172;5.446;2022-09-23T07:34:04;12.70;99.90
52075;DHT22;38075;53.172;5.446;2022-09-23T07:36:30;12.80;99.90
52075;DHT22;38075;53.172;5.446;2022-09-23T07:38:58;12.80;99.90
52075;DHT22;38075;53.172;5.446;2022-09-23T07:41:28;12.80;99.90
52075;DHT22;38075;53.172;5.446;2022-09-23T07:43:55;12.90;99.90
52075;DHT22;38075;53.172;5.446;2022-09-23T07:46:28;13.00;99.90
52075;DHT22;38075;53.172;5.446;2022-09-23T07:48:54;13.10;99.90
52075;DHT22;38075;53.172;5.446;2022-09-23T07:51:26;13.20;99.90
52075;DHT22;38075;53.172;5.446;2022-09-23T07:53:53;13.30;99.90
52075;DHT22;38075;53.172;5.446;2022-09-23T07:56:20;13.30;99.90
52075;DHT22;38075;53.172;5.446;2022-09-23T07:58:47;13.30;99.90
52075;DHT22;38075;53.172;5.446;2022-09-23T08:01:25;13.30;99.90
52075;DHT22;38075;53.172;5.446;2022-09-23T08:03:52;13.60;99.90
52075;DHT22;38075;53.172;5.446;2022-09-23T08:06:18;13.40;99.90
52075;DHT22;38075;53.172;5.446;2022-09-23T08:08:43;13.40;99.90
52075;DHT22;38075;53.172;5.446;2022-09-23T08:11:11;13.40;99.90
52075;DHT22;38075;53.172;5.446;2022-09-23T08:13:37;13.40;99.90
52075;DHT22;38075;53.172;5.446;2022-09-23T08:16:03;13.50;99.90
52075;DHT22;38075;53.172;5.446;2022-09-23T08:18:29;13.50;99.90
52075;DHT22;38075;53.172;5.446;2022-09-23T08:20:55;13.60;99.90
52075;DHT22;38075;53.172;5.446;2022-09-23T08:23:21;13.70;99.90
52075;DHT22;38075;53.172;5.446;2022-09-23T08:25:47;13.80;99.90
52075;DHT22;38075;53.172;5.446;2022-09-23T08:28:14;13.80;99.90
52075;DHT22;38075;53.172;5.446;2022-09-23T08:30:42;14.00;99.90
52075;DHT22;38075;53.172;5.446;2022-09-23T08:33:09;14.20;99.90
52075;DHT22;38075;53.172;5.446;2022-09-23T08:35:35;14.30;99.90
52075;DHT22;38075;53.172;5.446;2022-09-23T08:38:01;14.30;99.90
52075;DHT22;38075;53.172;5.446;2022-09-23T08:40:27;14.40;99.90
52075;DHT22;38075;53.172;5.446;2022-09-23T08:42:52;14.50;99.90
52075;DHT22;38075;53.172;5.446;2022-09-23T08:45:25;14.60;99.90
52075;DHT22;38075;53.172;5.446;2022-09-23T08:47:59;14.60;99.90
52075;DHT22;38075;53.172;5.446;2022-09-23T08:50:35;14.60;99.90
52075;DHT22;38075;53.172;5.446;2022-09-23T08:53:10;14.60;99.90
52075;DHT22;38075;53.172;5.446;2022-09-23T08:55:45;14.70;99.90
52075;DHT22;38075;53.172;5.446;2022-09-23T09:03:58;14.60;99.90
52075;DHT22;38075;53.172;5.446;2022-09-23T09:09:01;14.60;99.90
52075;DHT22;38075;53.172;5.446;2022-09-23T09:11:34;14.60;99.90
52075;DHT22;38075;53.172;5.446;2022-09-23T09:14:14;14.60;99.90
52075;DHT22;38075;53.172;5.446;2022-09-23T09:19:20;14.60;99.90
52075;DHT22;38075;53.172;5.446;2022-09-23T09:21:52;14.70;99.90
52075;DHT22;38075;53.172;5.446;2022-09-23T09:24:33;14.80;99.90
52075;DHT22;38075;53.172;5.446;2022-09-23T09:27:12;14.90;99.90
52075;DHT22;38075;53.172;5.446;2022-09-23T09:29:40;15.00;99.90
52075;DHT22;38075;53.172;5.446;2022-09-23T09:34:52;15.20;99.90
52075;DHT22;38075;53.172;5.446;2022-09-23T09:39:44;15.20;99.90
52075;DHT22;38075;53.172;5.446;2022-09-23T09:42:18;15.20;99.90
52075;DHT22;38075;53.172;5.446;2022-09-23T09:44:48;15.20;99.90
52075;DHT22;38075;53.172;5.446;2022-09-23T09:50:11;15.20;99.90
52075;DHT22;38075;53.172;5.446;2022-09-23T09:52:46;15.30;99.90
52075;DHT22;38075;53.172;5.446;2022-09-23T10:02:56;15.20;99.90
52075;DHT22;38075;53.172;5.446;2022-09-23T10:05:31;15.20;99.90
52075;DHT22;38075;53.172;5.446;2022-09-23T10:13:30;15.30;99.90
52075;DHT22;38075;53.172;5.446;2022-09-23T10:15:58;15.30;99.90
52075;DHT22;38075;53.172;5.446;2022-09-23T10:18:33;15.40;99.90
52075;DHT22;38075;53.172;5.446;2022-09-23T10:21:15;15.40;99.90
52075;DHT22;38075;53.172;5.446;2022-09-23T10:23:46;15.50;99.90
52075;DHT22;38075;53.172;5.446;2022-09-23T10:26:13;15.50;99.90
52075;DHT22;38075;53.172;5.446;2022-09-23T10:28:51;15.50;99.90
52075;DHT22;38075;53.172;5.446;2022-09-23T10:33:52;15.50;99.90
52075;DHT22;38075;53.172;5.446;2022-09-23T10:36:19;15.60;99.90
52075;DHT22;38075;53.172;5.446;2022-09-23T10:38:48;15.60;99.90
52075;DHT22;38075;53.172;5.446;2022-09-23T10:41:44;15.70;99.90
52075;DHT22;38075;53.172;5.446;2022-09-23T10:50:47;15.90;99.90
52075;DHT22;38075;53.172;5.446;2022-09-23T10:53:31;15.90;99.90
52075;DHT22;38075;53.172;5.446;2022-09-23T10:59:12;16.00;99.90
52075;DHT22;38075;53.172;5.446;2022-09-23T11:12:38;16.10;99.90
52075;DHT22;38075;53.172;5.446;2022-09-23T11:31:52;15.90;99.90
52075;DHT22;38075;53.172;5.446;2022-09-23T11:34:41;15.80;99.90
52075;DHT22;38075;53.172;5.446;2022-09-23T11:37:19;15.80;99.90
52075;DHT22;38075;53.172;5.446;2022-09-23T11:40:33;15.80;99.90
52075;DHT22;38075;53.172;5.446;2022-09-23T11:43:00;15.80;99.90
52075;DHT22;38075;53.172;5.446;2022-09-23T11:45:34;15.80;99.90
52075;DHT22;38075;53.172;5.446;2022-09-23T11:48:03;15.80;99.90
52075;DHT22;38075;53.172;5.446;2022-09-23T11:50:40;15.90;99.90
52075;DHT22;38075;53.172;5.446;2022-09-23T11:58:58;15.70;99.90
52075;DHT22;38075;53.172;5.446;2022-09-23T12:01:32;15.60;99.90
52075;DHT22;38075;53.172;5.446;2022-09-23T12:07:03;15.60;99.90
52075;DHT22;38075;53.172;5.446;2022-09-23T12:09:42;15.60;99.90
52075;DHT22;38075;53.172;5.446;2022-09-23T12:16:12;15.60;99.90
52075;DHT22;38075;53.172;5.446;2022-09-23T12:25:50;15.50;99.90
52075;DHT22;38075;53.172;5.446;2022-09-23T12:28:22;15.40;99.90
52075;DHT22;38075;53.172;5.446;2022-09-23T12:30:51;15.40;99.90
52075;DHT22;38075;53.172;5.446;2022-09-23T12:33:21;15.40;99.90
52075;DHT22;38075;53.172;5.446;2022-09-23T12:35:49;15.30;99.90
52075;DHT22;38075;53.172;5.446;2022-09-23T12:38:48;15.30;99.90
52075;DHT22;38075;53.172;5.446;2022-09-23T12:41:35;15.30;99.90
52075;DHT22;38075;53.172;5.446;2022-09-23T12:44:25;15.40;99.90
52075;DHT22;38075;53.172;5.446;2022-09-23T12:49:51;15.60;99.90
52075;DHT22;38075;53.172;5.446;2022-09-23T12:54:45;15.90;99.90
52075;DHT22;38075;53.172;5.446;2022-09-23T13:02:38;16.10;99.90
52075;DHT22;38075;53.172;5.446;2022-09-23T13:05:10;16.10;99.90
52075;DHT22;38075;53.172;5.446;2022-09-23T13:08:05;16.20;99.90
52075;DHT22;38075;53.172;5.446;2022-09-23T13:10:53;16.20;99.90
52075;DHT22;38075;53.172;5.446;2022-09-23T13:13:41;16.10;99.90
52075;DHT22;38075;53.172;5.446;2022-09-23T13:16:19;16.10;99.90
52075;DHT22;38075;53.172;5.446;2022-09-23T13:18:58;16.20;99.90
52075;DHT22;38075;53.172;5.446;2022-09-23T13:29:24;16.10;99.90
52075;DHT22;38075;53.172;5.446;2022-09-23T13:31:52;16.20;99.90
52075;DHT22;38075;53.172;5.446;2022-09-23T13:34:23;16.20;99.90
52075;DHT22;38075;53.172;5.446;2022-09-23T13:36:50;16.30;99.90
52075;DHT22;38075;53.172;5.446;2022-09-23T13:39:25;16.60;99.90
52075;DHT22;38075;53.172;5.446;2022-09-23T13:41:58;16.30;99.90
52075;DHT22;38075;53.172;5.446;2022-09-23T13:44:27;16.20;99.90
52075;DHT22;38075;53.172;5.446;2022-09-23T13:46:58;16.10;99.90
52075;DHT22;38075;53.172;5.446;2022-09-23T13:49:28;16.10;99.90
52075;DHT22;38075;53.172;5.446;2022-09-23T13:51:55;16.00;99.90
52075;DHT22;38075;53.172;5.446;2022-09-23T13:56:56;16.00;99.90
52075;DHT22;38075;53.172;5.446;2022-09-23T13:59:25;16.00;99.90
52075;DHT22;38075;53.172;5.446;2022-09-23T14:02:05;15.90;99.90
52075;DHT22;38075;53.172;5.446;2022-09-23T14:04:31;15.80;99.90
52075;DHT22;38075;53.172;5.446;2022-09-23T14:06:57;15.90;99.90
52075;DHT22;38075;53.172;5.446;2022-09-23T14:09:25;16.00;99.90
52075;DHT22;38075;53.172;5.446;2022-09-23T14:11:52;15.80;99.90
52075;DHT22;38075;53.172;5.446;2022-09-23T14:14:19;15.70;99.90
52075;DHT22;38075;53.172;5.446;2022-09-23T14:16:47;15.70;99.90
52075;DHT22;38075;53.172;5.446;2022-09-23T14:19:19;15.60;99.90
52075;DHT22;38075;53.172;5.446;2022-09-23T14:21:53;15.60;99.90
52075;DHT22;38075;53.172;5.446;2022-09-23T14:24:22;15.40;99.90
52075;DHT22;38075;53.172;5.446;2022-09-23T14:29:25;15.40;99.90
52075;DHT22;38075;53.172;5.446;2022-09-23T14:32:01;15.40;99.90
52075;DHT22;38075;53.172;5.446;2022-09-23T14:34:48;15.40;99.90
52075;DHT22;38075;53.172;5.446;2022-09-23T14:37:22;15.30;99.90
52075;DHT22;38075;53.172;5.446;2022-09-23T14:40:19;15.30;99.90
52075;DHT22;38075;53.172;5.446;2022-09-23T14:42:47;15.20;99.90
52075;DHT22;38075;53.172;5.446;2022-09-23T14:45:18;15.20;99.90
52075;DHT22;38075;53.172;5.446;2022-09-23T14:47:55;15.20;99.90
52075;DHT22;38075;53.172;5.446;2022-09-23T14:50:24;15.20;99.90
52075;DHT22;38075;53.172;5.446;2022-09-23T14:55:52;15.10;99.90
52075;DHT22;38075;53.172;5.446;2022-09-23T14:58:26;15.10;99.90
52075;DHT22;38075;53.172;5.446;2022-09-23T15:00:56;15.00;99.90
52075;DHT22;38075;53.172;5.446;2022-09-23T15:03:22;15.00;99.90
52075;DHT22;38075;53.172;5.446;2022-09-23T15:05:49;14.90;99.90
52075;DHT22;38075;53.172;5.446;2022-09-23T15:08:21;14.90;99.90
52075;DHT22;38075;53.172;5.446;2022-09-23T15:10:47;14.80;99.90
52075;DHT22;38075;53.172;5.446;2022-09-23T15:13:17;14.80;99.90
52075;DHT22;38075;53.172;5.446;2022-09-23T15:15:44;14.80;99.90
52075;DHT22;38075;53.172;5.446;2022-09-23T15:18:18;14.80;99.90
52075;DHT22;38075;53.172;5.446;2022-09-23T15:20:51;14.80;99.90
52075;DHT22;38075;53.172;5.446;2022-09-23T15:24:18;14.80;99.90
52075;DHT22;38075;53.172;5.446;2022-09-23T15:26:47;14.80;99.90
52075;DHT22;38075;53.172;5.446;2022-09-23T15:29:13;14.70;99.90
52075;DHT22;38075;53.172;5.446;2022-09-23T15:31:39;14.70;99.90
52075;DHT22;38075;53.172;5.446;2022-09-23T15:34:04;14.60;99.90
52075;DHT22;38075;53.172;5.446;2022-09-23T15:36:30;14.60;99.90
52075;DHT22;38075;53.172;5.446;2022-09-23T15:39:04;14.50;99.90
52075;DHT22;38075;53.172;5.446;2022-09-23T15:41:31;14.50;99.90
52075;DHT22;38075;53.172;5.446;2022-09-23T15:44:18;14.50;99.90
52075;DHT22;38075;53.172;5.446;2022-09-23T15:46:47;14.50;99.90
52075;DHT22;38075;53.172;5.446;2022-09-23T15:49:34;14.40;99.90
52075;DHT22;38075;53.172;5.446;2022-09-23T15:52:02;14.30;99.90
52075;DHT22;38075;53.172;5.446;2022-09-23T15:54:28;14.30;99.90
52075;DHT22;38075;53.172;5.446;2022-09-23T15:56:54;14.30;99.90
52075;DHT22;38075;53.172;5.446;2022-09-23T15:59:21;14.30;99.90
52075;DHT22;38075;53.172;5.446;2022-09-23T16:01:48;14.30;99.90
52075;DHT22;38075;53.172;5.446;2022-09-23T16:04:15;14.30;99.90
52075;DHT22;38075;53.172;5.446;2022-09-23T16:06:42;14.30;99.90
52075;DHT22;38075;53.172;5.446;2022-09-23T16:09:09;14.30;99.90
52075;DHT22;38075;53.172;5.446;2022-09-23T16:11:39;14.30;99.90
52075;DHT22;38075;53.172;5.446;2022-09-23T16:14:14;14.30;99.90
52075;DHT22;38075;53.172;5.446;2022-09-23T16:16:41;14.30;99.90
52075;DHT22;38075;53.172;5.446;2022-09-23T16:19:13;14.30;99.90
52075;DHT22;38075;53.172;5.446;2022-09-23T16:21:43;14.30;99.90
52075;DHT22;38075;53.172;5.446;2022-09-23T16:24:16;14.30;99.90
52075;DHT22;38075;53.172;5.446;2022-09-23T16:26:46;14.30;99.90
52075;DHT22;38075;53.172;5.446;2022-09-23T16:29:12;14.30;99.90
52075;DHT22;38075;53.172;5.446;2022-09-23T16:31:38;14.30;99.90
52075;DHT22;38075;53.172;5.446;2022-09-23T16:34:04;14.30;99.90
52075;DHT22;38075;53.172;5.446;2022-09-23T16:36:32;14.20;99.90
52075;DHT22;38075;53.172;5.446;2022-09-23T16:38:59;14.20;99.90
52075;DHT22;38075;53.172;5.446;2022-09-23T16:41:28;14.20;99.90
52075;DHT22;38075;53.172;5.446;2022-09-23T16:43:54;14.10;99.90
52075;DHT22;38075;53.172;5.446;2022-09-23T16:46:21;14.20;99.90
52075;DHT22;38075;53.172;5.446;2022-09-23T16:48:48;14.10;99.90
52075;DHT22;38075;53.172;5.446;2022-09-23T16:51:20;14.10;99.90
52075;DHT22;38075;53.172;5.446;2022-09-23T16:53:47;14.10;99.90
52075;DHT22;38075;53.172;5.446;2022-09-23T16:56:14;14.10;99.90
52075;DHT22;38075;53.172;5.446;2022-09-23T16:58:42;14.10;99.90
52075;DHT22;38075;53.172;5.446;2022-09-23T17:01:14;14.00;99.90
52075;DHT22;38075;53.172;5.446;2022-09-23T17:03:58;14.10;99.90
52075;DHT22;38075;53.172;5.446;2022-09-23T17:06:24;14.00;99.90
52075;DHT22;38075;53.172;5.446;2022-09-23T17:08:52;14.00;99.90
52075;DHT22;38075;53.172;5.446;2022-09-23T17:11:18;14.10;99.90
52075;DHT22;38075;53.172;5.446;2022-09-23T17:13:44;14.00;99.90
52075;DHT22;38075;53.172;5.446;2022-09-23T17:16:24;14.00;99.90
52075;DHT22;38075;53.172;5.446;2022-09-23T17:18:50;14.00;99.90
52075;DHT22;38075;53.172;5.446;2022-09-23T17:21:16;13.90;99.90
52075;DHT22;38075;53.172;5.446;2022-09-23T17:23:41;14.00;99.90
52075;DHT22;38075;53.172;5.446;2022-09-23T17:26:07;13.90;99.90
52075;DHT22;38075;53.172;5.446;2022-09-23T17:28:34;13.90;99.90
52075;DHT22;38075;53.172;5.446;2022-09-23T17:31:04;14.00;99.90
52075;DHT22;38075;53.172;5.446;2022-09-23T17:33:32;13.90;99.90
52075;DHT22;38075;53.172;5.446;2022-09-23T17:36:05;14.00;99.90
52075;DHT22;38075;53.172;5.446;2022-09-23T17:38:32;13.90;99.90
52075;DHT22;38075;53.172;5.446;2022-09-23T17:40:58;13.90;99.90
52075;DHT22;38075;53.172;5.446;2022-09-23T17:43:29;13.90;99.90
52075;DHT22;38075;53.172;5.446;2022-09-23T17:46:00;13.90;99.90
52075;DHT22;38075;53.172;5.446;2022-09-23T17:48:27;14.00;99.90
52075;DHT22;38075;53.172;5.446;2022-09-23T17:50:57;14.00;1.00
52075;DHT22;38075;53.172;5.446;2022-09-23T17:53:24;14.00;1.00
52075;DHT22;38075;53.172;5.446;2022-09-23T17:55:57;14.00;1.00
52075;DHT22;38075;53.172;5.446;2022-09-23T17:58:31;14.00;1.00
52075;DHT22;38075;53.172;5.446;2022-09-23T18:00:58;14.00;1.00
52075;DHT22;38075;53.172;5.446;2022-09-23T18:03:25;14.10;1.00
52075;DHT22;38075;53.172;5.446;2022-09-23T18:05:51;14.00;1.00
52075;DHT22;38075;53.172;5.446;2022-09-23T18:08:20;14.00;1.00
52075;DHT22;38075;53.172;5.446;2022-09-23T18:10:46;14.00;1.00
52075;DHT22;38075;53.172;5.446;2022-09-23T18:13:14;13.90;1.00
52075;DHT22;38075;53.172;5.446;2022-09-23T18:15:40;14.00;1.00
52075;DHT22;38075;53.172;5.446;2022-09-23T18:18:05;13.90;1.00
52075;DHT22;38075;53.172;5.446;2022-09-23T18:20:31;13.90;1.00
52075;DHT22;38075;53.172;5.446;2022-09-23T18:22:57;14.00;1.00
52075;DHT22;38075;53.172;5.446;2022-09-23T18:25:23;14.00;1.00
52075;DHT22;38075;53.172;5.446;2022-09-23T18:27:49;14.00;1.00
52075;DHT22;38075;53.172;5.446;2022-09-23T18:30:15;14.00;1.00
52075;DHT22;38075;53.172;5.446;2022-09-23T18:32:44;14.00;1.00
52075;DHT22;38075;53.172;5.446;2022-09-23T18:35:10;13.90;1.00
52075;DHT22;38075;53.172;5.446;2022-09-23T18:37:36;14.00;1.00